sensor_id;sensor_type;location;lat;lon;timestamp;temperature;humidity
1812;DHT22;904;47.814;11.134;2023-04-24T00:01:05;11.90;91.30
1812;DHT22;904;47.814;11.134;2023-04-24T00:03:33;11.90;91.00
1812;DHT22;904;47.814;11.134;2023-04-24T00:06:00;11.90;91.00
1812;DHT22;904;47.814;11.134;2023-04-24T00:08:28;11.90;90.60
1812;DHT22;904;47.814;11.134;2023-04-24T00:10:57;11.80;91.10
1812;DHT22;904;47.814;11.134;2023-04-24T00:13:29;11.80;91.60
1812;DHT22;904;47.814;11.134;2023-04-24T00:15:57;11.80;91.00
1812;DHT22;904;47.814;11.134;2023-04-24T00:18:24;11.80;90.70
1812;DHT22;904;47.814;11.134;2023-04-24T00:20:52;11.70;90.50
1812;DHT22;904;47.814;11.134;2023-04-24T00:23:19;11.70;90.60
1812;DHT22;904;47.814;11.134;2023-04-24T00:25:46;11.60;90.60
1812;DHT22;904;47.814;11.134;2023-04-24T00:28:15;11.60;90.50
1812;DHT22;904;47.814;11.134;2023-04-24T00:30:42;11.60;91.00
1812;DHT22;904;47.814;11.134;2023-04-24T00:33:10;11.60;91.00
1812;DHT22;904;47.814;11.134;2023-04-24T00:35:37;11.60;91.40
1812;DHT22;904;47.814;11.134;2023-04-24T00:38:04;11.60;90.60
1812;DHT22;904;47.814;11.134;2023-04-24T00:40:32;11.60;90.80
1812;DHT22;904;47.814;11.134;2023-04-24T00:43:00;11.60;91.20
1812;DHT22;904;47.814;11.134;2023-04-24T00:45:29;11.60;91.30
1812;DHT22;904;47.814;11.134;2023-04-24T00:47:57;11.70;91.40
1812;DHT22;904;47.814;11.134;2023-04-24T00:50:24;11.70;91.50
1812;DHT22;904;47.814;11.134;2023-04-24T00:52:52;11.70;91.60
1812;DHT22;904;47.814;11.134;2023-04-24T00:55:19;11.80;91.50
1812;DHT22;904;47.814;11.134;2023-04-24T00:57:47;11.80;91.00
1812;DHT22;904;47.814;11.134;2023-04-24T01:00:15;11.80;90.40
1812;DHT22;904;47.814;11.134;2023-04-24T01:02:45;11.80;90.60
1812;DHT22;904;47.814;11.134;2023-04-24T01:05:13;11.80;90.70
1812;DHT22;904;47.814;11.134;2023-04-24T01:07:41;11.80;90.50
1812;DHT22;904;47.814;11.134;2023-04-24T01:10:11;11.80;90.00
1812;DHT22;904;47.814;11.134;2023-04-24T01:12:39;11.80;89.50
1812;DHT22;904;47.814;11.134;2023-04-24T01:15:07;11.70;89.80
1812;DHT22;904;47.814;11.134;2023-04-24T01:17:34;11.80;88.80
1812;DHT22;904;47.814;11.134;2023-04-24T01:20:03;11.70;87.90
1812;DHT22;904;47.814;11.134;2023-04-24T01:22:33;11.70;88.00
1812;DHT22;904;47.814;11.134;2023-04-24T01:25:00;11.60;87.00
1812;DHT22;904;47.814;11.134;2023-04-24T01:27:27;11.60;87.40
1812;DHT22;904;47.814;11.134;2023-04-24T01:29:54;11.60;88.10
1812;DHT22;904;47.814;11.134;2023-04-24T01:32:21;11.60;87.20
1812;DHT22;904;47.814;11.134;2023-04-24T01:34:50;11.60;87.30
1812;DHT22;904;47.814;11.134;2023-04-24T01:37:18;11.60;87.40
1812;DHT22;904;47.814;11.134;2023-04-24T01:39:47;11.70;87.10
1812;DHT22;904;47.814;11.134;2023-04-24T01:42:14;11.60;87.70
1812;DHT22;904;47.814;11.134;2023-04-24T01:44:41;11.70;87.40
1812;DHT22;904;47.814;11.134;2023-04-24T01:47:09;11.60;86.40
1812;DHT22;904;47.814;11.134;2023-04-24T01:49:38;11.60;86.90
1812;DHT22;904;47.814;11.134;2023-04-24T01:52:05;11.60;88.30
1812;DHT22;904;47.814;11.134;2023-04-24T01:54:33;11.60;87.80
1812;DHT22;904;47.814;11.134;2023-04-24T01:57:02;11.60;88.30
1812;DHT22;904;47.814;11.134;2023-04-24T01:59:30;11.50;88.40
1812;DHT22;904;47.814;11.134;2023-04-24T02:01:58;11.40;87.30
1812;DHT22;904;47.814;11.134;2023-04-24T02:04:25;11.40;87.70
1812;DHT22;904;47.814;11.134;2023-04-24T02:06:52;11.40;87.30
1812;DHT22;904;47.814;11.134;2023-04-24T02:09:19;11.40;87.00
1812;DHT22;904;47.814;11.134;2023-04-24T02:11:47;11.30;87.60
1812;DHT22;904;47.814;11.134;2023-04-24T02:14:15;11.30;87.80
1812;DHT22;904;47.814;11.134;2023-04-24T02:16:42;11.20;89.60
1812;DHT22;904;47.814;11.134;2023-04-24T02:19:09;11.20;90.20
1812;DHT22;904;47.814;11.134;2023-04-24T02:21:37;11.30;89.80
1812;DHT22;904;47.814;11.134;2023-04-24T02:24:04;11.20;89.60
1812;DHT22;904;47.814;11.134;2023-04-24T02:26:31;11.20;90.00
1812;DHT22;904;47.814;11.134;2023-04-24T02:28:58;11.20;90.30
1812;DHT22;904;47.814;11.134;2023-04-24T02:31:27;11.20;90.30
1812;DHT22;904;47.814;11.134;2023-04-24T02:33:54;11.20;89.70
1812;DHT22;904;47.814;11.134;2023-04-24T02:36:21;11.20;89.80
1812;DHT22;904;47.814;11.134;2023-04-24T02:38:48;11.20;90.30
1812;DHT22;904;47.814;11.134;2023-04-24T02:41:15;11.20;90.60
1812;DHT22;904;47.814;11.134;2023-04-24T02:43:42;11.10;90.40
1812;DHT22;904;47.814;11.134;2023-04-24T02:46:09;11.10;90.60
1812;DHT22;904;47.814;11.134;2023-04-24T02:48:38;11.00;90.80
1812;DHT22;904;47.814;11.134;2023-04-24T02:51:05;11.00;90.70
1812;DHT22;904;47.814;11.134;2023-04-24T02:53:33;11.00;90.90
1812;DHT22;904;47.814;11.134;2023-04-24T02:56:00;11.00;91.40
1812;DHT22;904;47.814;11.134;2023-04-24T02:58:27;11.00;91.50
1812;DHT22;904;47.814;11.134;2023-04-24T03:00:56;10.90;91.90
1812;DHT22;904;47.814;11.134;2023-04-24T03:03:23;10.80;92.30
1812;DHT22;904;47.814;11.134;2023-04-24T03:05:52;10.70;92.80
1812;DHT22;904;47.814;11.134;2023-04-24T03:08:19;10.80;92.90
1812;DHT22;904;47.814;11.134;2023-04-24T03:10:46;10.70;92.80
1812;DHT22;904;47.814;11.134;2023-04-24T03:13:13;10.80;93.00
1812;DHT22;904;47.814;11.134;2023-04-24T03:15:40;10.80;93.20
1812;DHT22;904;47.814;11.134;2023-04-24T03:18:07;10.90;93.20
1812;DHT22;904;47.814;11.134;2023-04-24T03:20:34;10.90;93.10
1812;DHT22;904;47.814;11.134;2023-04-24T03:23:04;10.80;93.20
1812;DHT22;904;47.814;11.134;2023-04-24T03:25:31;10.90;93.00
1812;DHT22;904;47.814;11.134;2023-04-24T03:27:58;10.90;93.30
1812;DHT22;904;47.814;11.134;2023-04-24T03:30:25;10.90;93.30
1812;DHT22;904;47.814;11.134;2023-04-24T03:32:52;10.90;92.90
1812;DHT22;904;47.814;11.134;2023-04-24T03:35:19;10.90;92.50
1812;DHT22;904;47.814;11.134;2023-04-24T03:37:47;10.90;92.60
1812;DHT22;904;47.814;11.134;2023-04-24T03:40:16;10.90;92.50
1812;DHT22;904;47.814;11.134;2023-04-24T03:42:45;10.90;92.70
1812;DHT22;904;47.814;11.134;2023-04-24T03:45:12;10.90;92.70
1812;DHT22;904;47.814;11.134;2023-04-24T03:47:43;10.90;92.80
1812;DHT22;904;47.814;11.134;2023-04-24T03:50:10;10.90;92.70
1812;DHT22;904;47.814;11.134;2023-04-24T03:52:41;10.80;93.00
1812;DHT22;904;47.814;11.134;2023-04-24T03:55:08;10.80;93.20
1812;DHT22;904;47.814;11.134;2023-04-24T03:57:40;10.80;93.10
1812;DHT22;904;47.814;11.134;2023-04-24T04:00:08;10.90;92.80
1812;DHT22;904;47.814;11.134;2023-04-24T04:02:35;10.80;92.80
1812;DHT22;904;47.814;11.134;2023-04-24T04:05:02;10.80;92.70
1812;DHT22;904;47.814;11.134;2023-04-24T04:07:29;10.80;92.90
1812;DHT22;904;47.814;11.134;2023-04-24T04:09:57;10.80;92.30
1812;DHT22;904;47.814;11.134;2023-04-24T04:12:24;10.80;92.20
1812;DHT22;904;47.814;11.134;2023-04-24T04:14:52;10.90;92.20
1812;DHT22;904;47.814;11.134;2023-04-24T04:17:22;10.90;92.20
1812;DHT22;904;47.814;11.134;2023-04-24T04:19:51;10.90;92.20
1812;DHT22;904;47.814;11.134;2023-04-24T04:22:19;10.90;91.90
1812;DHT22;904;47.814;11.134;2023-04-24T04:24:46;10.90;91.70
1812;DHT22;904;47.814;11.134;2023-04-24T04:27:14;11.00;91.90
1812;DHT22;904;47.814;11.134;2023-04-24T04:29:42;11.00;91.80
1812;DHT22;904;47.814;11.134;2023-04-24T04:32:11;11.00;91.90
1812;DHT22;904;47.814;11.134;2023-04-24T04:34:38;11.00;91.10
1812;DHT22;904;47.814;11.134;2023-04-24T04:37:05;11.00;91.00
1812;DHT22;904;47.814;11.134;2023-04-24T04:39:32;11.00;90.90
1812;DHT22;904;47.814;11.134;2023-04-24T04:42:02;11.00;90.90
1812;DHT22;904;47.814;11.134;2023-04-24T04:44:29;11.00;90.70
1812;DHT22;904;47.814;11.134;2023-04-24T04:46:57;11.10;90.40
1812;DHT22;904;47.814;11.134;2023-04-24T04:49:26;11.10;90.10
1812;DHT22;904;47.814;11.134;2023-04-24T04:51:55;11.10;89.80
1812;DHT22;904;47.814;11.134;2023-04-24T04:54:23;11.10;89.50
1812;DHT22;904;47.814;11.134;2023-04-24T04:56:53;11.10;90.00
1812;DHT22;904;47.814;11.134;2023-04-24T04:59:21;11.20;88.60
1812;DHT22;904;47.814;11.134;2023-04-24T05:01:48;11.10;87.80
1812;DHT22;904;47.814;11.134;2023-04-24T05:04:19;11.20;88.20
1812;DHT22;904;47.814;11.134;2023-04-24T05:06:52;11.10;88.30
1812;DHT22;904;47.814;11.134;2023-04-24T05:09:19;11.10;88.40
1812;DHT22;904;47.814;11.134;2023-04-24T05:11:46;11.20;88.00
1812;DHT22;904;47.814;11.134;2023-04-24T05:14:14;11.20;86.80
1812;DHT22;904;47.814;11.134;2023-04-24T05:16:41;11.10;86.20
1812;DHT22;904;47.814;11.134;2023-04-24T05:19:08;11.20;86.40
1812;DHT22;904;47.814;11.134;2023-04-24T05:21:36;11.20;86.00
1812;DHT22;904;47.814;11.134;2023-04-24T05:24:06;11.20;84.70
1812;DHT22;904;47.814;11.134;2023-04-24T05:26:33;11.10;85.70
1812;DHT22;904;47.814;11.134;2023-04-24T05:29:01;11.20;84.80
1812;DHT22;904;47.814;11.134;2023-04-24T05:31:28;11.10;85.30
1812;DHT22;904;47.814;11.134;2023-04-24T05:33:55;11.10;85.60
1812;DHT22;904;47.814;11.134;2023-04-24T05:36:22;11.00;85.30
1812;DHT22;904;47.814;11.134;2023-04-24T05:38:49;11.00;85.10
1812;DHT22;904;47.814;11.134;2023-04-24T05:41:18;11.00;86.00
1812;DHT22;904;47.814;11.134;2023-04-24T05:43:45;11.10;85.10
1812;DHT22;904;47.814;11.134;2023-04-24T05:46:12;11.00;85.70
1812;DHT22;904;47.814;11.134;2023-04-24T05:48:43;11.10;85.30
1812;DHT22;904;47.814;11.134;2023-04-24T05:51:11;11.20;85.00
1812;DHT22;904;47.814;11.134;2023-04-24T05:53:38;11.10;85.00
1812;DHT22;904;47.814;11.134;2023-04-24T05:56:05;11.10;85.60
1812;DHT22;904;47.814;11.134;2023-04-24T05:58:34;11.20;86.70
1812;DHT22;904;47.814;11.134;2023-04-24T06:01:01;11.20;85.40
1812;DHT22;904;47.814;11.134;2023-04-24T06:03:29;11.30;85.00
1812;DHT22;904;47.814;11.134;2023-04-24T06:05:56;11.30;85.60
1812;DHT22;904;47.814;11.134;2023-04-24T06:08:26;11.30;86.50
1812;DHT22;904;47.814;11.134;2023-04-24T06:10:53;11.30;87.20
1812;DHT22;904;47.814;11.134;2023-04-24T06:13:20;11.30;87.40
1812;DHT22;904;47.814;11.134;2023-04-24T06:15:48;11.40;87.40
1812;DHT22;904;47.814;11.134;2023-04-24T06:18:15;11.50;87.90
1812;DHT22;904;47.814;11.134;2023-04-24T06:20:43;11.60;87.40
1812;DHT22;904;47.814;11.134;2023-04-24T06:23:13;11.70;87.40
1812;DHT22;904;47.814;11.134;2023-04-24T06:25:40;11.70;87.50
1812;DHT22;904;47.814;11.134;2023-04-24T06:28:07;11.80;88.30
1812;DHT22;904;47.814;11.134;2023-04-24T06:30:34;11.90;89.00
1812;DHT22;904;47.814;11.134;2023-04-24T06:33:03;11.90;89.60
1812;DHT22;904;47.814;11.134;2023-04-24T06:35:30;11.90;86.20
1812;DHT22;904;47.814;11.134;2023-04-24T06:37:57;11.90;85.80
1812;DHT22;904;47.814;11.134;2023-04-24T06:40:24;11.90;84.80
1812;DHT22;904;47.814;11.134;2023-04-24T06:42:52;11.90;85.00
1812;DHT22;904;47.814;11.134;2023-04-24T06:45:23;11.90;84.40
1812;DHT22;904;47.814;11.134;2023-04-24T06:47:51;12.00;83.70
1812;DHT22;904;47.814;11.134;2023-04-24T06:50:23;12.00;83.20
1812;DHT22;904;47.814;11.134;2023-04-24T06:52:50;12.10;80.90
1812;DHT22;904;47.814;11.134;2023-04-24T06:55:18;12.10;79.60
1812;DHT22;904;47.814;11.134;2023-04-24T06:57:45;12.10;80.80
1812;DHT22;904;47.814;11.134;2023-04-24T07:00:13;12.20;80.20
1812;DHT22;904;47.814;11.134;2023-04-24T07:02:40;12.20;80.00
1812;DHT22;904;47.814;11.134;2023-04-24T07:05:08;12.10;80.60
1812;DHT22;904;47.814;11.134;2023-04-24T07:07:36;12.10;80.90
1812;DHT22;904;47.814;11.134;2023-04-24T07:10:06;12.10;80.10
1812;DHT22;904;47.814;11.134;2023-04-24T07:12:34;12.10;81.00
1812;DHT22;904;47.814;11.134;2023-04-24T07:15:10;12.20;80.50
1812;DHT22;904;47.814;11.134;2023-04-24T07:17:38;12.30;79.20
1812;DHT22;904;47.814;11.134;2023-04-24T07:20:09;12.40;79.30
1812;DHT22;904;47.814;11.134;2023-04-24T07:22:38;12.60;79.20
1812;DHT22;904;47.814;11.134;2023-04-24T07:25:06;12.70;78.30
1812;DHT22;904;47.814;11.134;2023-04-24T07:27:34;12.90;76.60
1812;DHT22;904;47.814;11.134;2023-04-24T07:30:02;13.10;75.80
1812;DHT22;904;47.814;11.134;2023-04-24T07:32:29;13.40;73.80
1812;DHT22;904;47.814;11.134;2023-04-24T07:35:01;13.60;73.80
1812;DHT22;904;47.814;11.134;2023-04-24T07:37:28;13.80;72.10
1812;DHT22;904;47.814;11.134;2023-04-24T07:39:57;14.00;72.00
1812;DHT22;904;47.814;11.134;2023-04-24T07:42:28;14.20;71.50
1812;DHT22;904;47.814;11.134;2023-04-24T07:44:56;14.30;69.20
1812;DHT22;904;47.814;11.134;2023-04-24T07:47:23;14.30;69.10
1812;DHT22;904;47.814;11.134;2023-04-24T07:49:50;14.30;69.40
1812;DHT22;904;47.814;11.134;2023-04-24T07:52:17;14.30;68.10
1812;DHT22;904;47.814;11.134;2023-04-24T07:54:44;14.30;67.00
1812;DHT22;904;47.814;11.134;2023-04-24T07:57:13;14.20;66.70
1812;DHT22;904;47.814;11.134;2023-04-24T07:59:42;14.10;66.10
1812;DHT22;904;47.814;11.134;2023-04-24T08:02:09;14.00;67.90
1812;DHT22;904;47.814;11.134;2023-04-24T08:04:39;13.90;69.50
1812;DHT22;904;47.814;11.134;2023-04-24T08:07:06;13.90;69.30
1812;DHT22;904;47.814;11.134;2023-04-24T08:09:33;14.00;69.60
1812;DHT22;904;47.814;11.134;2023-04-24T08:12:00;14.10;69.80
1812;DHT22;904;47.814;11.134;2023-04-24T08:14:32;14.20;69.40
1812;DHT22;904;47.814;11.134;2023-04-24T08:16:59;14.30;68.80
1812;DHT22;904;47.814;11.134;2023-04-24T08:19:29;14.30;69.50
1812;DHT22;904;47.814;11.134;2023-04-24T08:21:56;14.30;66.90
1812;DHT22;904;47.814;11.134;2023-04-24T08:24:23;14.30;65.70
1812;DHT22;904;47.814;11.134;2023-04-24T08:26:50;14.20;66.50
1812;DHT22;904;47.814;11.134;2023-04-24T08:29:20;14.20;67.70
1812;DHT22;904;47.814;11.134;2023-04-24T08:31:52;14.10;67.50
1812;DHT22;904;47.814;11.134;2023-04-24T08:34:22;14.20;68.00
1812;DHT22;904;47.814;11.134;2023-04-24T08:36:50;14.30;68.90
1812;DHT22;904;47.814;11.134;2023-04-24T08:39:17;14.40;68.30
1812;DHT22;904;47.814;11.134;2023-04-24T08:41:44;14.50;66.10
1812;DHT22;904;47.814;11.134;2023-04-24T08:44:14;14.50;64.50
1812;DHT22;904;47.814;11.134;2023-04-24T08:46:43;14.50;64.00
1812;DHT22;904;47.814;11.134;2023-04-24T08:49:13;14.60;64.50
1812;DHT22;904;47.814;11.134;2023-04-24T08:51:50;14.80;63.40
1812;DHT22;904;47.814;11.134;2023-04-24T08:54:19;14.90;64.30
1812;DHT22;904;47.814;11.134;2023-04-24T08:56:48;15.10;64.10
1812;DHT22;904;47.814;11.134;2023-04-24T08:59:18;15.20;64.50
1812;DHT22;904;47.814;11.134;2023-04-24T09:01:45;15.40;64.00
1812;DHT22;904;47.814;11.134;2023-04-24T09:04:15;15.60;59.80
1812;DHT22;904;47.814;11.134;2023-04-24T09:06:43;15.70;59.10
1812;DHT22;904;47.814;11.134;2023-04-24T09:09:11;15.90;58.70
1812;DHT22;904;47.814;11.134;2023-04-24T09:11:38;16.00;58.90
1812;DHT22;904;47.814;11.134;2023-04-24T09:14:07;16.00;56.70
1812;DHT22;904;47.814;11.134;2023-04-24T09:16:36;15.90;56.10
1812;DHT22;904;47.814;11.134;2023-04-24T09:19:03;15.90;56.50
1812;DHT22;904;47.814;11.134;2023-04-24T09:21:33;15.90;55.30
1812;DHT22;904;47.814;11.134;2023-04-24T09:24:01;15.90;55.80
1812;DHT22;904;47.814;11.134;2023-04-24T09:26:32;15.80;54.30
1812;DHT22;904;47.814;11.134;2023-04-24T09:28:59;15.70;54.60
1812;DHT22;904;47.814;11.134;2023-04-24T09:31:27;15.70;52.60
1812;DHT22;904;47.814;11.134;2023-04-24T09:33:56;15.80;53.60
1812;DHT22;904;47.814;11.134;2023-04-24T09:36:28;16.30;54.60
1812;DHT22;904;47.814;11.134;2023-04-24T09:39:00;16.70;53.00
1812;DHT22;904;47.814;11.134;2023-04-24T09:41:28;17.00;51.30
1812;DHT22;904;47.814;11.134;2023-04-24T09:43:56;17.30;49.30
1812;DHT22;904;47.814;11.134;2023-04-24T09:46:29;17.60;49.20
1812;DHT22;904;47.814;11.134;2023-04-24T09:48:57;18.00;49.20
1812;DHT22;904;47.814;11.134;2023-04-24T09:51:35;18.40;47.60
1812;DHT22;904;47.814;11.134;2023-04-24T09:54:11;18.70;46.50
1812;DHT22;904;47.814;11.134;2023-04-24T09:56:42;19.00;45.40
1812;DHT22;904;47.814;11.134;2023-04-24T09:59:10;19.30;45.30
1812;DHT22;904;47.814;11.134;2023-04-24T10:01:37;19.50;41.80
1812;DHT22;904;47.814;11.134;2023-04-24T10:04:18;19.50;41.90
1812;DHT22;904;47.814;11.134;2023-04-24T10:06:47;19.60;41.30
1812;DHT22;904;47.814;11.134;2023-04-24T10:09:15;19.90;40.10
1812;DHT22;904;47.814;11.134;2023-04-24T10:11:44;20.10;42.20
1812;DHT22;904;47.814;11.134;2023-04-24T10:14:13;20.20;40.10
1812;DHT22;904;47.814;11.134;2023-04-24T10:16:46;20.60;41.20
1812;DHT22;904;47.814;11.134;2023-04-24T10:19:14;20.90;40.70
1812;DHT22;904;47.814;11.134;2023-04-24T10:21:45;21.20;38.90
1812;DHT22;904;47.814;11.134;2023-04-24T10:24:15;21.40;38.30
1812;DHT22;904;47.814;11.134;2023-04-24T10:26:44;21.70;37.20
1812;DHT22;904;47.814;11.134;2023-04-24T10:29:12;22.00;39.60
1812;DHT22;904;47.814;11.134;2023-04-24T10:31:40;22.10;37.50
1812;DHT22;904;47.814;11.134;2023-04-24T10:34:09;22.30;37.80
1812;DHT22;904;47.814;11.134;2023-04-24T10:36:41;22.40;36.90
1812;DHT22;904;47.814;11.134;2023-04-24T10:39:12;22.40;35.40
1812;DHT22;904;47.814;11.134;2023-04-24T10:41:42;22.20;34.10
1812;DHT22;904;47.814;11.134;2023-04-24T10:44:11;21.70;33.80
1812;DHT22;904;47.814;11.134;2023-04-24T10:46:43;21.00;35.70
1812;DHT22;904;47.814;11.134;2023-04-24T10:49:10;20.40;37.20
1812;DHT22;904;47.814;11.134;2023-04-24T10:51:48;19.80;37.70
1812;DHT22;904;47.814;11.134;2023-04-24T10:54:23;19.20;42.90
1812;DHT22;904;47.814;11.134;2023-04-24T10:56:52;18.40;45.40
1812;DHT22;904;47.814;11.134;2023-04-24T10:59:27;17.80;47.60
1812;DHT22;904;47.814;11.134;2023-04-24T11:01:54;17.30;50.00
1812;DHT22;904;47.814;11.134;2023-04-24T11:04:32;16.80;51.00
1812;DHT22;904;47.814;11.134;2023-04-24T11:07:02;16.60;52.90
1812;DHT22;904;47.814;11.134;2023-04-24T11:09:31;16.90;54.10
1812;DHT22;904;47.814;11.134;2023-04-24T11:12:06;17.40;55.10
1812;DHT22;904;47.814;11.134;2023-04-24T11:15:01;18.30;55.60
1812;DHT22;904;47.814;11.134;2023-04-24T11:17:35;18.80;51.50
1812;DHT22;904;47.814;11.134;2023-04-24T11:20:04;19.10;51.10
1812;DHT22;904;47.814;11.134;2023-04-24T11:22:33;19.20;47.70
1812;DHT22;904;47.814;11.134;2023-04-24T11:25:01;19.30;47.30
1812;DHT22;904;47.814;11.134;2023-04-24T11:27:34;19.50;45.20
1812;DHT22;904;47.814;11.134;2023-04-24T11:30:10;19.90;43.60
1812;DHT22;904;47.814;11.134;2023-04-24T11:32:39;20.00;42.10
1812;DHT22;904;47.814;11.134;2023-04-24T11:35:12;20.00;41.80
1812;DHT22;904;47.814;11.134;2023-04-24T11:37:40;20.20;41.60
1812;DHT22;904;47.814;11.134;2023-04-24T11:40:10;20.20;39.70
1812;DHT22;904;47.814;11.134;2023-04-24T11:42:40;20.20;39.50
1812;DHT22;904;47.814;11.134;2023-04-24T11:45:09;20.10;38.20
1812;DHT22;904;47.814;11.134;2023-04-24T11:47:37;19.80;38.60
1812;DHT22;904;47.814;11.134;2023-04-24T11:50:05;19.40;39.60
1812;DHT22;904;47.814;11.134;2023-04-24T11:52:36;19.00;38.90
1812;DHT22;904;47.814;11.134;2023-04-24T11:55:04;18.80;38.20
1812;DHT22;904;47.814;11.134;2023-04-24T11:57:31;18.60;38.70
1812;DHT22;904;47.814;11.134;2023-04-24T12:00:02;18.50;39.80
1812;DHT22;904;47.814;11.134;2023-04-24T12:02:29;18.50;39.40
1812;DHT22;904;47.814;11.134;2023-04-24T12:04:56;18.70;38.50
1812;DHT22;904;47.814;11.134;2023-04-24T12:07:23;18.80;37.70
1812;DHT22;904;47.814;11.134;2023-04-24T12:09:57;18.80;39.00
1812;DHT22;904;47.814;11.134;2023-04-24T12:12:26;18.90;38.70
1812;DHT22;904;47.814;11.134;2023-04-24T12:14:56;19.10;39.30
1812;DHT22;904;47.814;11.134;2023-04-24T12:17:29;19.30;37.30
1812;DHT22;904;47.814;11.134;2023-04-24T12:20:01;19.60;39.40
1812;DHT22;904;47.814;11.134;2023-04-24T12:22:42;20.00;41.90
1812;DHT22;904;47.814;11.134;2023-04-24T12:25:10;20.40;37.70
1812;DHT22;904;47.814;11.134;2023-04-24T12:27:37;20.40;35.50
1812;DHT22;904;47.814;11.134;2023-04-24T12:30:09;20.20;34.50
1812;DHT22;904;47.814;11.134;2023-04-24T12:32:41;19.90;35.30
1812;DHT22;904;47.814;11.134;2023-04-24T12:35:08;19.70;37.20
1812;DHT22;904;47.814;11.134;2023-04-24T12:37:35;19.50;37.40
1812;DHT22;904;47.814;11.134;2023-04-24T12:40:07;19.30;36.30
1812;DHT22;904;47.814;11.134;2023-04-24T12:42:36;19.00;35.60
1812;DHT22;904;47.814;11.134;2023-04-24T12:45:08;18.70;36.60
1812;DHT22;904;47.814;11.134;2023-04-24T12:47:40;18.50;37.30
1812;DHT22;904;47.814;11.134;2023-04-24T12:50:10;18.20;38.50
1812;DHT22;904;47.814;11.134;2023-04-24T12:52:38;17.80;39.30
1812;DHT22;904;47.814;11.134;2023-04-24T12:55:06;17.40;40.90
1812;DHT22;904;47.814;11.134;2023-04-24T12:57:35;17.00;45.10
1812;DHT22;904;47.814;11.134;2023-04-24T13:00:03;16.70;46.10
1812;DHT22;904;47.814;11.134;2023-04-24T13:02:33;16.30;47.80
1812;DHT22;904;47.814;11.134;2023-04-24T13:05:02;16.20;48.30
1812;DHT22;904;47.814;11.134;2023-04-24T13:07:29;16.20;49.80
1812;DHT22;904;47.814;11.134;2023-04-24T13:09:56;16.40;51.10
1812;DHT22;904;47.814;11.134;2023-04-24T13:12:24;16.50;51.70
1812;DHT22;904;47.814;11.134;2023-04-24T13:14:51;16.70;50.80
1812;DHT22;904;47.814;11.134;2023-04-24T13:17:18;16.90;48.50
1812;DHT22;904;47.814;11.134;2023-04-24T13:19:48;17.10;49.30
1812;DHT22;904;47.814;11.134;2023-04-24T13:22:18;17.30;50.40
1812;DHT22;904;47.814;11.134;2023-04-24T13:24:45;17.50;49.70
1812;DHT22;904;47.814;11.134;2023-04-24T13:27:16;17.60;46.00
1812;DHT22;904;47.814;11.134;2023-04-24T13:29:43;17.80;43.10
1812;DHT22;904;47.814;11.134;2023-04-24T13:32:11;17.90;40.60
1812;DHT22;904;47.814;11.134;2023-04-24T13:34:38;18.00;39.90
1812;DHT22;904;47.814;11.134;2023-04-24T13:37:05;18.00;40.70
1812;DHT22;904;47.814;11.134;2023-04-24T13:39:34;18.00;40.00
1812;DHT22;904;47.814;11.134;2023-04-24T13:42:02;18.00;40.10
1812;DHT22;904;47.814;11.134;2023-04-24T13:44:29;18.00;40.40
1812;DHT22;904;47.814;11.134;2023-04-24T13:46:57;18.00;38.30
1812;DHT22;904;47.814;11.134;2023-04-24T13:49:25;17.80;38.80
1812;DHT22;904;47.814;11.134;2023-04-24T13:51:53;17.80;39.80
1812;DHT22;904;47.814;11.134;2023-04-24T13:54:20;17.80;38.90
1812;DHT22;904;47.814;11.134;2023-04-24T13:56:50;17.80;38.80
1812;DHT22;904;47.814;11.134;2023-04-24T13:59:17;17.70;38.70
1812;DHT22;904;47.814;11.134;2023-04-24T14:01:46;17.70;39.10
1812;DHT22;904;47.814;11.134;2023-04-24T14:04:13;17.60;39.70
1812;DHT22;904;47.814;11.134;2023-04-24T14:06:40;17.40;39.30
1812;DHT22;904;47.814;11.134;2023-04-24T14:09:07;17.10;39.10
1812;DHT22;904;47.814;11.134;2023-04-24T14:11:34;17.00;39.30
1812;DHT22;904;47.814;11.134;2023-04-24T14:14:03;16.90;38.40
1812;DHT22;904;47.814;11.134;2023-04-24T14:16:30;16.90;37.90
1812;DHT22;904;47.814;11.134;2023-04-24T14:18:57;17.10;38.80
1812;DHT22;904;47.814;11.134;2023-04-24T14:21:25;17.20;36.90
1812;DHT22;904;47.814;11.134;2023-04-24T14:23:51;17.30;37.80
1812;DHT22;904;47.814;11.134;2023-04-24T14:26:19;17.30;37.90
1812;DHT22;904;47.814;11.134;2023-04-24T14:28:47;17.30;40.00
1812;DHT22;904;47.814;11.134;2023-04-24T14:31:15;17.40;39.90
1812;DHT22;904;47.814;11.134;2023-04-24T14:33:42;17.40;38.40
1812;DHT22;904;47.814;11.134;2023-04-24T14:36:09;17.30;38.50
1812;DHT22;904;47.814;11.134;2023-04-24T14:38:36;17.30;39.20
1812;DHT22;904;47.814;11.134;2023-04-24T14:41:03;17.30;39.80
1812;DHT22;904;47.814;11.134;2023-04-24T14:43:34;17.30;39.90
1812;DHT22;904;47.814;11.134;2023-04-24T14:46:02;17.40;38.00
1812;DHT22;904;47.814;11.134;2023-04-24T14:48:30;17.50;37.00
1812;DHT22;904;47.814;11.134;2023-04-24T14:50:57;17.60;38.30
1812;DHT22;904;47.814;11.134;2023-04-24T14:53:25;17.70;38.40
1812;DHT22;904;47.814;11.134;2023-04-24T14:55:52;17.80;37.10
1812;DHT22;904;47.814;11.134;2023-04-24T14:58:19;17.80;37.80
1812;DHT22;904;47.814;11.134;2023-04-24T15:00:46;17.80;36.60
1812;DHT22;904;47.814;11.134;2023-04-24T15:03:15;17.60;36.10
1812;DHT22;904;47.814;11.134;2023-04-24T15:05:44;17.50;37.00
1812;DHT22;904;47.814;11.134;2023-04-24T15:08:11;17.30;36.80
1812;DHT22;904;47.814;11.134;2023-04-24T15:10:38;17.30;37.00
1812;DHT22;904;47.814;11.134;2023-04-24T15:13:05;17.20;37.20
1812;DHT22;904;47.814;11.134;2023-04-24T15:15:32;17.20;37.00
1812;DHT22;904;47.814;11.134;2023-04-24T15:17:59;17.20;37.80
1812;DHT22;904;47.814;11.134;2023-04-24T15:20:26;17.10;37.70
1812;DHT22;904;47.814;11.134;2023-04-24T15:22:54;17.00;38.20
1812;DHT22;904;47.814;11.134;2023-04-24T15:25:21;16.90;38.00
1812;DHT22;904;47.814;11.134;2023-04-24T15:27:48;16.70;38.00
1812;DHT22;904;47.814;11.134;2023-04-24T15:30:15;16.50;38.60
1812;DHT22;904;47.814;11.134;2023-04-24T15:32:42;16.40;38.30
1812;DHT22;904;47.814;11.134;2023-04-24T15:35:09;16.40;39.20
1812;DHT22;904;47.814;11.134;2023-04-24T15:37:36;16.50;40.50
1812;DHT22;904;47.814;11.134;2023-04-24T15:40:06;16.50;40.10
1812;DHT22;904;47.814;11.134;2023-04-24T15:42:33;16.30;39.40
1812;DHT22;904;47.814;11.134;2023-04-24T15:45:02;16.10;39.90
1812;DHT22;904;47.814;11.134;2023-04-24T15:47:29;15.80;40.20
1812;DHT22;904;47.814;11.134;2023-04-24T15:49:57;15.70;40.50
1812;DHT22;904;47.814;11.134;2023-04-24T15:52:24;15.60;41.10
1812;DHT22;904;47.814;11.134;2023-04-24T15:54:51;15.60;40.80
1812;DHT22;904;47.814;11.134;2023-04-24T15:57:20;15.40;40.90
1812;DHT22;904;47.814;11.134;2023-04-24T15:59:47;15.30;41.50
1812;DHT22;904;47.814;11.134;2023-04-24T16:02:14;15.20;41.70
1812;DHT22;904;47.814;11.134;2023-04-24T16:04:44;15.20;42.10
1812;DHT22;904;47.814;11.134;2023-04-24T16:07:11;15.10;42.00
1812;DHT22;904;47.814;11.134;2023-04-24T16:09:38;15.00;42.50